Dahlgren, Virginia
Current Conditions -  °F | °C
As of 12:56 AM on Wednesday 28 Jan 2015 (Local Time) from KNYG Reporting Station
Few Clouds Few Clouds  
Wind Chill: -8°   Ceiling: Unl
Heat Index: -2°   Visibility: NA
Dew Point: -11°   Wind: 14mph
Humidity: 53%   Direction: 350°N
Pressure: 30.03"   Gusts: 28mph
Location:  38.33°N, 77.05°W
Report Text: KNYG 280556Z AUTO 35012G24KT FEW100 M02/M11 A3003 RMK AO2 PK WND 36031/0535 SLP168 T10221106 10000 21022 51024 $
Loading
Personal Weather Stations






























Interactive Weather Map New forecast layout! Learn more

10-Day Weather Forecast

Advertisements
Track Severe Weather on mobile